createdAt,value
2023-08-20T00:04:49.662Z,21.42
2023-08-20T00:09:46.263Z,17.58
2023-08-20T00:15:06.009Z,18.48
2023-08-20T00:20:10.174Z,17.42
2023-08-20T00:25:07.232Z,14.18
2023-08-20T00:30:04.986Z,10.43
2023-08-20T00:35:02.108Z,9.55
2023-08-20T00:39:59.102Z,6.90
2023-08-20T00:44:55.522Z,5.60
2023-08-20T00:49:52.072Z,6.72
2023-08-20T00:54:49.192Z,6.18
2023-08-20T00:59:49.691Z,4.97
2023-08-20T01:04:48.217Z,4.95
2023-08-20T01:10:15.216Z,3.90
2023-08-20T01:15:14.994Z,4.88
2023-08-20T01:20:12.644Z,5.90
2023-08-20T01:30:25.818Z,5.43
2023-08-20T01:35:25.311Z,4.75
2023-08-20T01:40:21.774Z,5.53
2023-08-20T01:45:19.676Z,6.25
2023-08-20T01:50:16.441Z,6.50
2023-08-20T01:55:13.077Z,5.77
2023-08-20T02:00:10.197Z,4.95
2023-08-20T02:05:06.985Z,5.05
2023-08-20T02:10:04.080Z,5.03
2023-08-20T02:15:00.586Z,5.88
2023-08-20T02:19:57.040Z,6.07
2023-08-20T02:24:53.481Z,7.75
2023-08-20T02:29:50.139Z,7.38
2023-08-20T02:34:51.130Z,8.10
2023-08-20T02:39:47.754Z,9.15
2023-08-20T02:44:44.166Z,8.75
2023-08-20T02:49:40.604Z,8.60
2023-08-20T02:54:37.093Z,7.97
2023-08-20T02:59:33.571Z,7.93
2023-08-20T03:04:30.477Z,7.25
2023-08-20T03:09:26.946Z,6.83
2023-08-20T03:14:25.394Z,7.05
2023-08-20T03:19:23.135Z,6.90
2023-08-20T03:24:19.636Z,5.20
2023-08-20T03:29:16.063Z,6.00
2023-08-20T03:34:12.517Z,5.60
2023-08-20T03:39:09.446Z,5.32
2023-08-20T03:44:06.225Z,4.87
2023-08-20T03:49:02.963Z,4.20
2023-08-20T03:53:59.617Z,4.70
2023-08-20T03:58:56.608Z,4.25
2023-08-20T04:03:53.100Z,3.93
2023-08-20T04:08:49.919Z,4.38
2023-08-20T04:13:46.675Z,3.60
2023-08-20T04:18:43.107Z,2.40
2023-08-20T04:23:39.533Z,4.07
2023-08-20T04:28:35.951Z,3.80
2023-08-20T04:33:32.388Z,3.45
2023-08-20T04:38:28.958Z,2.83
2023-08-20T04:43:25.397Z,3.42
2023-08-20T04:48:21.940Z,2.63
2023-08-20T04:53:18.728Z,3.45
2023-08-20T04:58:15.155Z,3.60
2023-08-20T05:03:11.696Z,2.42
2023-08-20T05:08:08.982Z,2.80
2023-08-20T05:13:05.862Z,2.78
2023-08-20T05:18:02.437Z,2.33
2023-08-20T05:22:58.939Z,2.72
2023-08-20T05:27:55.348Z,2.40
2023-08-20T05:32:51.842Z,3.13
2023-08-20T05:37:48.301Z,1.98
2023-08-20T05:42:44.718Z,2.05
2023-08-20T05:47:41.185Z,1.98
2023-08-20T05:52:37.928Z,2.30
2023-08-20T05:57:34.758Z,2.17
2023-08-20T06:02:31.384Z,1.80
2023-08-20T06:07:28.153Z,2.03
2023-08-20T06:12:24.931Z,1.67
2023-08-20T06:17:21.997Z,2.13
2023-08-20T06:22:18.496Z,1.70
2023-08-20T06:27:14.978Z,1.63
2023-08-20T06:32:11.452Z,1.70
2023-08-20T06:37:07.935Z,2.30
2023-08-20T06:42:04.795Z,2.50
2023-08-20T06:47:01.283Z,1.90
2023-08-20T06:51:57.707Z,2.60
2023-08-20T06:56:54.157Z,3.10
2023-08-20T07:01:50.649Z,3.37
2023-08-20T07:06:47.151Z,3.20
2023-08-20T07:11:43.891Z,4.25
2023-08-20T07:16:40.586Z,3.58
2023-08-20T07:21:37.057Z,5.47
2023-08-20T07:26:33.490Z,5.30
2023-08-20T07:31:32.491Z,5.72
2023-08-20T07:36:29.215Z,5.65
2023-08-20T07:41:26.267Z,5.80
2023-08-20T07:46:22.741Z,6.57
2023-08-20T07:51:19.525Z,6.82
2023-08-20T07:56:15.986Z,6.97
2023-08-20T08:01:14.617Z,7.40
2023-08-20T08:06:11.154Z,7.97
2023-08-20T08:11:07.675Z,8.15
2023-08-20T08:16:04.175Z,8.05
2023-08-20T08:21:00.592Z,9.07
2023-08-20T08:25:57.153Z,8.40
2023-08-20T08:30:53.682Z,9.18
2023-08-20T08:35:50.272Z,8.30
2023-08-20T08:40:46.876Z,7.55
2023-08-20T08:45:47.794Z,8.95
2023-08-20T08:50:44.546Z,9.68
2023-08-20T08:55:43.326Z,8.52
2023-08-20T09:00:40.278Z,8.77
2023-08-20T09:06:04.034Z,7.28
2023-08-20T09:11:02.152Z,7.65
2023-08-20T09:16:00.384Z,8.15
2023-08-20T09:25:54.662Z,6.65
2023-08-20T09:30:56.539Z,6.53
2023-08-20T09:35:55.076Z,7.47
2023-08-20T09:40:53.723Z,5.47
2023-08-20T09:45:51.203Z,4.88
2023-08-20T09:50:49.246Z,6.03
2023-08-20T09:55:46.118Z,6.38
2023-08-20T10:00:43.269Z,5.35
2023-08-20T10:05:39.737Z,4.78
2023-08-20T10:15:34.281Z,4.57
2023-08-20T10:20:34.035Z,4.95
2023-08-20T10:25:31.291Z,4.57
2023-08-20T10:30:27.780Z,3.58
2023-08-20T10:35:28.566Z,4.45
2023-08-20T10:40:59.147Z,4.32
2023-08-20T10:46:20.425Z,4.03
2023-08-20T10:51:19.313Z,4.90
2023-08-20T10:56:17.173Z,3.90
2023-08-20T11:01:19.761Z,3.92
2023-08-20T11:06:17.089Z,4.05
2023-08-20T11:11:14.136Z,4.57
2023-08-20T11:16:10.836Z,4.70
2023-08-20T11:21:09.114Z,5.05
2023-08-20T11:26:05.554Z,4.68
2023-08-20T11:31:02.665Z,5.10
2023-08-20T11:35:59.183Z,5.18
2023-08-20T11:40:55.641Z,4.97
2023-08-20T11:45:52.188Z,4.40
2023-08-20T12:00:42.314Z,4.80
2023-08-20T12:05:43.178Z,4.45
2023-08-20T12:10:43.405Z,5.57
2023-08-20T12:15:39.840Z,4.20
2023-08-20T12:20:36.948Z,3.97
2023-08-20T12:25:35.379Z,4.60
2023-08-20T12:30:34.964Z,3.97
2023-08-20T12:35:33.395Z,3.92
2023-08-20T12:40:30.133Z,4.50
2023-08-20T12:45:26.887Z,4.45
2023-08-20T12:55:19.934Z,4.43
2023-08-20T13:05:14.694Z,3.88
2023-08-20T13:10:11.908Z,4.10
2023-08-20T13:15:10.828Z,4.03
2023-08-20T13:20:09.339Z,3.55
2023-08-20T13:25:06.646Z,3.85
2023-08-20T13:30:04.047Z,3.65
2023-08-20T13:35:00.508Z,3.95
2023-08-20T13:39:56.911Z,3.60
2023-08-20T13:44:53.381Z,3.88
2023-08-20T13:49:49.772Z,3.88
2023-08-20T13:54:46.923Z,4.32
2023-08-20T13:59:43.357Z,4.15
2023-08-20T14:04:39.790Z,3.65
2023-08-20T14:09:37.147Z,3.75
2023-08-20T14:14:33.669Z,3.75
2023-08-20T14:19:30.073Z,3.88
2023-08-20T14:24:26.494Z,3.80
2023-08-20T14:29:22.926Z,4.07
2023-08-20T14:34:19.313Z,3.72
2023-08-20T14:39:15.819Z,4.80
2023-08-20T14:44:12.289Z,4.50
2023-08-20T14:49:08.786Z,4.28
2023-08-20T14:54:05.468Z,4.15
2023-08-20T15:03:58.394Z,4.43
2023-08-20T15:08:54.847Z,4.78
2023-08-20T15:13:53.118Z,4.05
2023-08-20T15:18:49.532Z,4.15
2023-08-20T15:23:46.007Z,4.00
2023-08-20T15:28:42.393Z,5.57
2023-08-20T15:33:38.787Z,4.10
2023-08-20T15:38:35.367Z,3.88
2023-08-20T15:43:31.831Z,4.28
2023-08-20T15:48:28.306Z,3.97
2023-08-20T15:53:24.901Z,4.07
2023-08-20T15:58:21.386Z,4.45
2023-08-20T16:03:17.997Z,5.30
2023-08-20T16:08:14.545Z,4.43
2023-08-20T16:13:10.995Z,4.47
2023-08-20T16:18:07.701Z,5.00
2023-08-20T16:28:00.703Z,4.30
2023-08-20T16:32:57.148Z,4.47
2023-08-20T16:37:53.701Z,4.22
2023-08-20T16:42:50.491Z,4.18
2023-08-20T16:52:43.312Z,3.60
2023-08-20T16:57:40.534Z,3.90
2023-08-20T17:02:37.190Z,3.78
2023-08-20T17:12:30.158Z,3.60
2023-08-20T17:22:26.970Z,3.88
2023-08-20T17:27:23.608Z,3.95
2023-08-20T17:32:20.352Z,3.13
2023-08-20T17:42:15.215Z,2.92
2023-08-20T17:47:11.623Z,2.65
2023-08-20T17:52:08.000Z,2.60
2023-08-20T17:57:04.733Z,2.85
2023-08-20T18:02:01.179Z,2.72
2023-08-20T18:06:57.586Z,2.25
2023-08-20T18:11:54.088Z,2.30
2023-08-20T18:16:50.561Z,2.10
2023-08-20T18:21:47.133Z,2.00
2023-08-20T18:26:43.521Z,2.92
2023-08-20T18:31:39.924Z,1.70
2023-08-20T18:36:36.415Z,1.60
2023-08-20T18:41:32.853Z,1.90
2023-08-20T18:46:29.341Z,1.80
2023-08-20T18:51:26.329Z,1.83
2023-08-20T18:56:25.619Z,1.73
2023-08-20T19:01:22.070Z,1.42
2023-08-20T19:06:18.971Z,1.80
2023-08-20T19:11:15.643Z,1.30
2023-08-20T19:16:12.123Z,1.58
2023-08-20T19:21:08.830Z,2.63
2023-08-20T19:26:05.253Z,1.95
2023-08-20T19:31:01.667Z,1.80
2023-08-20T19:35:58.049Z,3.00
2023-08-20T19:40:56.616Z,2.00
2023-08-20T19:45:54.192Z,2.33
2023-08-20T19:50:50.724Z,2.33
2023-08-20T19:55:47.137Z,2.10
2023-08-20T20:00:43.720Z,1.65
2023-08-20T20:05:40.243Z,1.53
2023-08-20T20:10:36.702Z,1.60
2023-08-20T20:15:33.156Z,1.42
2023-08-20T20:20:29.663Z,1.30
2023-08-20T20:25:26.096Z,0.90
2023-08-20T20:30:22.654Z,1.00
2023-08-20T20:35:19.212Z,0.90
2023-08-20T20:40:15.624Z,1.07
2023-08-20T20:45:12.279Z,0.85
2023-08-20T20:50:08.884Z,1.20
2023-08-20T20:55:06.060Z,0.90
2023-08-20T21:00:03.554Z,1.25
2023-08-20T21:09:56.494Z,1.00
2023-08-20T21:14:52.918Z,1.08
2023-08-20T21:19:49.326Z,1.00
2023-08-20T21:24:46.032Z,1.50
2023-08-20T21:29:42.446Z,0.90
2023-08-20T21:34:39.750Z,1.00
2023-08-20T21:39:36.191Z,1.00
2023-08-20T21:44:32.592Z,1.15
2023-08-20T21:49:29.015Z,0.90
2023-08-20T21:54:25.540Z,1.27
2023-08-20T21:59:21.943Z,0.93
2023-08-20T22:04:18.324Z,1.15
2023-08-20T22:09:14.697Z,0.73
2023-08-20T22:14:11.160Z,1.20
2023-08-20T22:19:07.608Z,0.98
2023-08-20T22:24:04.220Z,1.20
2023-08-20T22:29:00.853Z,0.95
2023-08-20T22:33:57.596Z,0.90
2023-08-20T22:38:54.006Z,0.73
2023-08-20T22:43:50.435Z,1.02
2023-08-20T22:48:46.989Z,0.90
2023-08-20T22:53:43.435Z,0.98
2023-08-20T22:58:39.845Z,0.95
2023-08-20T23:03:36.450Z,1.60
2023-08-20T23:08:33.221Z,1.38
2023-08-20T23:13:29.656Z,1.17
2023-08-20T23:18:26.965Z,0.80
2023-08-20T23:23:23.482Z,0.80
2023-08-20T23:28:21.912Z,1.45
2023-08-20T23:33:18.793Z,1.40
2023-08-20T23:38:15.309Z,1.63
2023-08-20T23:43:11.732Z,1.27
2023-08-20T23:48:08.152Z,1.10
2023-08-20T23:53:04.789Z,1.00
2023-08-20T23:58:01.226Z,1.00
